createdAt,value
2023-01-09T00:02:40.830Z,31.40
2023-01-09T00:05:23.951Z,29.30
2023-01-09T00:08:06.871Z,29.30
2023-01-09T00:10:50.582Z,27.90
2023-01-09T00:13:33.612Z,28.60
2023-01-09T00:16:16.915Z,28.80
2023-01-09T00:19:00.973Z,27.80
2023-01-09T00:21:43.789Z,29.50
2023-01-09T00:24:26.578Z,26.70
2023-01-09T00:29:52.200Z,26.80
2023-01-09T00:32:35.017Z,29.30
2023-01-09T00:38:03.644Z,29.40
2023-01-09T00:40:46.447Z,27.90
2023-01-09T00:46:18.289Z,25.90
2023-01-09T00:49:03.151Z,28.10
2023-01-09T00:51:46.452Z,26.80
2023-01-09T00:54:30.785Z,28.20
2023-01-09T00:57:14.403Z,27.00
2023-01-09T00:59:58.978Z,28.70
2023-01-09T01:02:41.866Z,28.40
2023-01-09T01:05:43.711Z,27.90
2023-01-09T01:08:26.539Z,28.80
2023-01-09T01:13:53.246Z,28.50
2023-01-09T01:16:36.179Z,29.60
2023-01-09T01:19:18.976Z,27.50
2023-01-09T01:27:29.061Z,28.20
2023-01-09T01:30:14.617Z,28.80
2023-01-09T01:32:57.428Z,29.50
2023-01-09T01:38:22.844Z,29.50
2023-01-09T01:43:58.411Z,26.90
2023-01-09T01:46:41.183Z,30.10
2023-01-09T01:49:24.016Z,29.00
2023-01-09T01:54:50.237Z,28.90
2023-01-09T02:00:50.572Z,27.50
2023-01-09T02:04:44.474Z,29.30
2023-01-09T02:08:38.321Z,29.00
2023-01-09T02:12:32.216Z,29.70
2023-01-09T02:16:44.870Z,30.40
2023-01-09T02:20:34.590Z,30.30
2023-01-09T02:24:48.378Z,29.00
2023-01-09T02:28:51.908Z,28.60
2023-01-09T02:32:47.299Z,29.10
2023-01-09T02:36:50.896Z,31.50
2023-01-09T02:40:59.025Z,29.40
2023-01-09T02:45:12.195Z,30.30
2023-01-09T02:48:58.788Z,31.50
2023-01-09T02:52:22.872Z,30.50
2023-01-09T02:55:57.314Z,29.40
2023-01-09T02:59:52.013Z,30.20
2023-01-09T03:03:37.828Z,30.50
2023-01-09T03:07:21.956Z,28.80
2023-01-09T03:11:14.945Z,29.50
2023-01-09T03:14:55.047Z,29.90
2023-01-09T03:18:59.034Z,32.90
2023-01-09T03:22:35.329Z,30.80
2023-01-09T03:26:21.468Z,33.60
2023-01-09T03:29:53.140Z,31.10
2023-01-09T03:33:32.834Z,32.30
2023-01-09T03:37:29.690Z,35.60
2023-01-09T03:41:33.515Z,30.70
2023-01-09T03:45:00.242Z,31.30
2023-01-09T03:48:44.239Z,30.40
2023-01-09T03:52:28.977Z,32.90
2023-01-09T03:56:32.791Z,34.60
2023-01-09T04:00:29.421Z,34.80
2023-01-09T04:04:15.082Z,32.90
2023-01-09T04:07:52.396Z,31.60
2023-01-09T04:11:56.368Z,33.10
2023-01-09T04:16:00.333Z,30.50
2023-01-09T04:19:27.044Z,30.90
2023-01-09T04:23:13.312Z,31.10
2023-01-09T04:27:17.186Z,29.00
2023-01-09T04:31:04.101Z,26.90
2023-01-09T04:34:50.409Z,29.40
2023-01-09T04:38:37.646Z,29.60
2023-01-09T04:42:09.121Z,27.40
2023-01-09T04:45:56.045Z,28.10
2023-01-09T04:50:00.045Z,28.50
2023-01-09T04:53:52.199Z,26.90
2023-01-09T04:57:48.911Z,26.70
2023-01-09T05:01:52.933Z,26.90
2023-01-09T05:05:30.972Z,26.90
2023-01-09T05:09:34.846Z,28.00
2023-01-09T05:13:27.505Z,28.30
2023-01-09T05:17:19.080Z,29.80
2023-01-09T05:20:25.057Z,27.90
2023-01-09T05:23:48.796Z,30.50
2023-01-09T05:27:36.408Z,30.90
2023-01-09T05:31:33.118Z,31.00
2023-01-09T05:34:42.052Z,32.40
2023-01-09T05:38:01.912Z,32.20
2023-01-09T05:41:48.433Z,30.70
2023-01-09T05:45:22.393Z,32.50
2023-01-09T05:48:56.283Z,32.00
2023-01-09T05:52:31.243Z,31.60
2023-01-09T05:59:15.926Z,34.30
2023-01-09T06:02:46.567Z,32.20
2023-01-09T06:06:28.365Z,30.70
2023-01-09T06:09:54.701Z,30.60
2023-01-09T06:13:26.879Z,33.10
2023-01-09T06:16:45.038Z,32.00
2023-01-09T06:20:22.022Z,33.80
2023-01-09T06:23:38.627Z,34.10
2023-01-09T06:27:13.454Z,38.60
2023-01-09T06:31:17.467Z,39.40
2023-01-09T06:34:47.023Z,39.10
2023-01-09T06:38:33.992Z,40.10
2023-01-09T06:46:05.827Z,33.60
2023-01-09T06:50:09.865Z,40.00
2023-01-09T06:53:57.400Z,39.30
2023-01-09T06:57:41.220Z,41.40
2023-01-09T07:01:21.416Z,41.40
2023-01-09T07:05:15.565Z,45.70
2023-01-09T07:09:00.619Z,42.80
2023-01-09T07:12:22.117Z,43.90
2023-01-09T07:16:25.952Z,46.20
2023-01-09T07:19:43.377Z,44.10
2023-01-09T07:23:16.875Z,45.10
2023-01-09T07:27:20.708Z,49.90
2023-01-09T07:30:34.315Z,47.90
2023-01-09T07:33:44.777Z,49.40
2023-01-09T07:37:11.088Z,47.30
2023-01-09T07:40:53.768Z,46.90
2023-01-09T07:44:37.762Z,49.40
2023-01-09T07:51:16.964Z,53.10
2023-01-09T07:54:43.377Z,51.20
2023-01-09T07:58:16.003Z,50.70
2023-01-09T08:01:25.543Z,50.90
2023-01-09T08:04:53.168Z,53.40
2023-01-09T08:08:22.752Z,49.80
2023-01-09T08:11:57.719Z,54.10
2023-01-09T08:14:56.312Z,56.60
2023-01-09T08:18:22.844Z,55.00
2023-01-09T08:21:46.681Z,54.10
2023-01-09T08:25:23.386Z,55.20
2023-01-09T08:28:53.735Z,57.60
2023-01-09T08:32:10.081Z,56.40
2023-01-09T08:35:30.417Z,52.90
2023-01-09T08:39:14.074Z,56.50
2023-01-09T08:43:17.755Z,54.50
2023-01-09T08:47:11.282Z,57.70
2023-01-09T08:50:17.280Z,57.70
2023-01-09T08:53:54.962Z,54.00
2023-01-09T08:57:57.693Z,56.60
2023-01-09T09:01:26.137Z,53.80
2023-01-09T09:05:00.123Z,55.20
2023-01-09T09:08:33.785Z,54.40
2023-01-09T09:11:57.457Z,60.40
2023-01-09T09:15:13.715Z,63.10
2023-01-09T09:19:17.621Z,58.40
2023-01-09T09:23:11.732Z,55.10
2023-01-09T09:26:49.358Z,53.10
2023-01-09T09:30:03.928Z,50.30
2023-01-09T09:33:36.640Z,56.90
2023-01-09T09:37:09.532Z,55.20
2023-01-09T09:40:30.827Z,55.90
2023-01-09T09:45:05.453Z,56.20
2023-01-09T09:48:30.667Z,56.50
2023-01-09T09:51:40.584Z,58.90
2023-01-09T09:55:05.222Z,65.90
2023-01-09T09:58:41.899Z,66.00
2023-01-09T10:01:40.853Z,60.90
2023-01-09T10:04:51.535Z,57.60
2023-01-09T10:08:24.504Z,56.40
2023-01-09T10:12:34.246Z,58.30
2023-01-09T10:16:01.093Z,54.30
2023-01-09T10:19:42.205Z,56.40
2023-01-09T10:23:12.188Z,56.80
2023-01-09T10:26:41.057Z,55.90
2023-01-09T10:29:59.393Z,55.10
2023-01-09T10:33:52.159Z,57.10
2023-01-09T10:37:26.341Z,55.10
2023-01-09T10:41:09.771Z,56.90
2023-01-09T10:44:41.694Z,59.60
2023-01-09T10:48:11.380Z,58.10
2023-01-09T10:51:43.791Z,63.80
2023-01-09T10:55:21.372Z,63.10
2023-01-09T10:58:59.573Z,61.30
2023-01-09T11:02:17.192Z,57.20
2023-01-09T11:05:51.619Z,58.00
2023-01-09T11:09:40.979Z,57.00
2023-01-09T11:13:25.294Z,59.30
2023-01-09T11:16:53.103Z,57.00
2023-01-09T11:20:30.491Z,56.20
2023-01-09T11:23:40.185Z,54.20
2023-01-09T11:27:11.099Z,54.30
2023-01-09T11:31:06.486Z,54.70
2023-01-09T11:34:44.892Z,56.70
2023-01-09T11:38:11.691Z,58.80
2023-01-09T11:41:12.045Z,57.00
2023-01-09T11:44:26.774Z,57.30
2023-01-09T11:47:54.118Z,58.30
2023-01-09T11:51:05.739Z,56.10
2023-01-09T11:54:34.650Z,57.40
2023-01-09T11:57:23.931Z,53.30
2023-01-09T12:00:54.292Z,57.50
2023-01-09T12:04:19.568Z,56.90
2023-01-09T12:07:45.392Z,52.70
2023-01-09T12:11:46.079Z,54.40
2023-01-09T12:15:50.188Z,53.00
2023-01-09T12:19:12.931Z,52.30
2023-01-09T12:22:57.230Z,50.10
2023-01-09T12:27:02.313Z,52.50
2023-01-09T12:30:36.729Z,51.80
2023-01-09T12:34:14.697Z,49.80
2023-01-09T12:37:44.270Z,49.70
2023-01-09T12:41:23.204Z,49.10
2023-01-09T12:45:01.383Z,50.20
2023-01-09T12:49:01.042Z,49.60
2023-01-09T12:52:44.960Z,47.60
2023-01-09T12:56:16.422Z,51.30
2023-01-09T12:59:46.125Z,50.40
2023-01-09T13:03:59.366Z,49.50
2023-01-09T13:07:13.182Z,49.90
2023-01-09T13:10:45.751Z,49.60
2023-01-09T13:14:22.370Z,51.30
2023-01-09T13:17:42.228Z,48.90
2023-01-09T13:20:48.072Z,51.30
2023-01-09T13:24:05.367Z,49.70
2023-01-09T13:27:58.794Z,49.10
2023-01-09T13:31:15.318Z,45.40
2023-01-09T13:34:21.784Z,45.60
2023-01-09T13:37:39.969Z,47.30
2023-01-09T13:41:16.439Z,45.80
2023-01-09T13:44:23.258Z,43.10
2023-01-09T13:47:49.168Z,45.70
2023-01-09T13:51:22.784Z,43.00
2023-01-09T13:54:59.929Z,43.00
2023-01-09T13:57:51.653Z,41.50
2023-01-09T14:01:15.233Z,43.00
2023-01-09T14:04:14.873Z,41.10
2023-01-09T14:07:43.176Z,43.10
2023-01-09T14:11:10.104Z,41.70
2023-01-09T14:14:58.200Z,42.90
2023-01-09T14:18:09.151Z,42.90
2023-01-09T14:21:41.184Z,40.50
2023-01-09T14:25:38.170Z,40.80
2023-01-09T14:29:16.158Z,38.30
2023-01-09T14:33:01.816Z,42.60
2023-01-09T14:36:36.458Z,41.00
2023-01-09T14:39:42.871Z,37.90
2023-01-09T14:43:14.047Z,39.30
2023-01-09T14:46:23.259Z,40.00
2023-01-09T14:49:31.011Z,37.90
2023-01-09T14:55:35.940Z,36.50
2023-01-09T14:58:56.298Z,39.00
2023-01-09T15:02:06.479Z,39.50
2023-01-09T15:05:17.238Z,41.70
2023-01-09T15:08:16.835Z,42.00
2023-01-09T15:11:12.465Z,42.60
2023-01-09T15:14:08.821Z,41.00
2023-01-09T15:16:52.574Z,43.20
2023-01-09T15:19:35.916Z,43.50
2023-01-09T15:22:31.198Z,41.60
2023-01-09T15:25:38.903Z,43.60
2023-01-09T15:28:45.053Z,43.00
2023-01-09T15:31:46.931Z,44.20
2023-01-09T15:34:32.955Z,40.10
2023-01-09T15:37:50.354Z,43.10
2023-01-09T15:40:36.607Z,42.90
2023-01-09T15:43:23.372Z,41.70
2023-01-09T15:46:27.143Z,43.90
2023-01-09T15:49:27.550Z,43.30
2023-01-09T15:52:51.607Z,42.40
2023-01-09T15:56:46.363Z,46.30
2023-01-09T16:00:29.056Z,40.60
2023-01-09T16:03:44.111Z,42.00
2023-01-09T16:06:45.219Z,44.30
2023-01-09T16:09:32.627Z,39.00
2023-01-09T16:12:40.402Z,39.60
2023-01-09T16:16:06.555Z,37.00
2023-01-09T16:18:59.250Z,38.80
2023-01-09T16:22:20.479Z,40.60
2023-01-09T16:29:26.509Z,39.00
2023-01-09T16:32:55.830Z,40.20
2023-01-09T16:35:39.254Z,38.80
2023-01-09T16:38:29.231Z,39.20
2023-01-09T16:41:49.754Z,40.10
2023-01-09T16:44:56.990Z,39.60
2023-01-09T16:47:43.300Z,40.30
2023-01-09T16:50:57.707Z,37.50
2023-01-09T16:53:50.224Z,36.30
2023-01-09T16:57:02.159Z,37.40
2023-01-09T17:00:26.485Z,37.90
2023-01-09T17:03:30.809Z,36.30
2023-01-09T17:06:39.182Z,34.80
2023-01-09T17:09:50.031Z,34.90
2023-01-09T17:12:45.989Z,32.90
2023-01-09T17:16:03.939Z,31.70
2023-01-09T17:19:10.857Z,31.60
2023-01-09T17:22:19.590Z,32.60
2023-01-09T17:25:50.310Z,33.60
2023-01-09T17:32:29.610Z,31.50
2023-01-09T17:36:01.180Z,35.10
2023-01-09T17:39:57.906Z,33.00
2023-01-09T17:43:23.447Z,33.20
2023-01-09T17:46:55.846Z,31.00
2023-01-09T17:49:59.290Z,31.10
2023-01-09T17:53:22.645Z,30.60
2023-01-09T17:56:45.114Z,33.00
2023-01-09T17:59:39.579Z,30.20
2023-01-09T18:03:07.624Z,32.20
2023-01-09T18:06:23.086Z,29.40
2023-01-09T18:09:38.356Z,31.10
2023-01-09T18:12:25.452Z,30.80
2023-01-09T18:15:43.668Z,34.90
2023-01-09T18:18:50.657Z,33.10
2023-01-09T18:21:59.125Z,34.20
2023-01-09T18:24:51.396Z,31.50
2023-01-09T18:27:40.225Z,32.10
2023-01-09T18:30:58.022Z,32.60
2023-01-09T18:33:57.635Z,30.90
2023-01-09T18:37:04.384Z,31.60
2023-01-09T18:40:17.304Z,34.60
2023-01-09T18:43:27.528Z,32.20
2023-01-09T18:46:38.659Z,34.20
2023-01-09T18:49:45.830Z,36.30
2023-01-09T18:52:42.291Z,32.10
2023-01-09T18:55:47.990Z,29.00
2023-01-09T18:58:50.041Z,29.20
2023-01-09T19:02:11.367Z,30.00
2023-01-09T19:05:00.223Z,27.90
2023-01-09T19:08:06.743Z,31.30
2023-01-09T19:11:43.129Z,26.20
2023-01-09T19:14:36.521Z,24.80
2023-01-09T19:18:01.287Z,25.50
2023-01-09T19:21:38.446Z,23.60
2023-01-09T19:24:46.941Z,26.80
2023-01-09T19:28:44.896Z,27.10
2023-01-09T19:32:02.156Z,23.90
2023-01-09T19:35:31.242Z,21.30
2023-01-09T19:38:34.315Z,24.00
2023-01-09T19:41:42.230Z,21.40
2023-01-09T19:44:32.779Z,22.00
2023-01-09T19:47:37.600Z,19.00
2023-01-09T19:51:20.303Z,18.50
2023-01-09T19:54:43.856Z,18.30
2023-01-09T19:57:50.691Z,18.30
2023-01-09T20:01:11.784Z,17.60
2023-01-09T20:04:38.687Z,17.60
2023-01-09T20:08:06.247Z,20.90
2023-01-09T20:11:35.912Z,22.40
2023-01-09T20:14:52.955Z,20.50
2023-01-09T20:18:50.541Z,20.00
2023-01-09T20:21:36.937Z,17.70
2023-01-09T20:25:10.509Z,18.20
2023-01-09T20:28:19.800Z,17.80
2023-01-09T20:32:07.654Z,18.40
2023-01-09T20:36:00.336Z,18.00
2023-01-09T20:39:33.371Z,18.40
2023-01-09T20:45:55.472Z,16.60
2023-01-09T20:49:13.063Z,19.90
2023-01-09T20:52:35.088Z,19.00
2023-01-09T20:55:50.521Z,19.30
2023-01-09T20:59:29.804Z,19.50
2023-01-09T21:02:49.373Z,20.00
2023-01-09T21:06:25.578Z,20.80
2023-01-09T21:10:01.970Z,21.20
2023-01-09T21:13:55.801Z,20.40
2023-01-09T21:17:41.943Z,20.20
2023-01-09T21:20:49.554Z,20.50
2023-01-09T21:24:07.529Z,21.80
2023-01-09T21:27:56.027Z,21.00
2023-01-09T21:31:25.698Z,21.70
2023-01-09T21:34:40.242Z,22.80
2023-01-09T21:38:24.100Z,22.90
2023-01-09T21:41:37.378Z,25.10
2023-01-09T21:45:06.806Z,24.70
2023-01-09T21:48:48.689Z,22.50
2023-01-09T21:52:42.767Z,27.20
2023-01-09T21:59:51.009Z,24.90
2023-01-09T22:03:18.918Z,25.10
2023-01-09T22:07:03.106Z,25.40
2023-01-09T22:10:45.891Z,26.70
2023-01-09T22:13:57.590Z,28.00
2023-01-09T22:17:28.299Z,27.30
2023-01-09T22:21:05.569Z,25.70
2023-01-09T22:24:54.630Z,25.90
2023-01-09T22:28:34.600Z,26.90
2023-01-09T22:32:14.200Z,25.10
2023-01-09T22:35:27.273Z,26.50
2023-01-09T22:38:47.327Z,26.20
2023-01-09T22:42:16.434Z,26.90
2023-01-09T22:45:50.520Z,33.10
2023-01-09T22:49:51.892Z,38.40
2023-01-09T22:53:36.538Z,41.70
2023-01-09T22:56:51.372Z,39.60
2023-01-09T23:00:18.190Z,42.40
2023-01-09T23:03:53.422Z,37.30
2023-01-09T23:06:52.218Z,37.20
2023-01-09T23:10:06.459Z,39.00
2023-01-09T23:13:21.379Z,35.50
2023-01-09T23:16:45.907Z,33.80
2023-01-09T23:19:57.115Z,35.10
2023-01-09T23:23:24.654Z,32.60
2023-01-09T23:27:21.570Z,35.60
2023-01-09T23:31:09.515Z,33.80
2023-01-09T23:34:23.570Z,32.50
2023-01-09T23:37:43.915Z,34.20
2023-01-09T23:41:16.989Z,32.40
2023-01-09T23:44:41.175Z,32.70
2023-01-09T23:48:35.370Z,31.20
2023-01-09T23:55:54.775Z,30.50
2023-01-09T23:59:33.675Z,34.00
